Mooresville, IN

8:34 AM EST on February 14, 2016 (GMT -0500)
APRSWXNET | | Change Station
CLOSE
Current Station
Personal Weather Station
Location: Mooresville, IN
Elevation: 793 ft
Nearby Weather Stations
Active Advisory: Winter Weather Advisory

Elev 793 ft 39.60 °N, 86.45 °W | Updated 16 minutes ago

Overcast
Overcast
15 °F
Feels Like 7 °F
N
5
Wind Variable Wind from ESE
Gusts 11.0 mph

Today
High -- | Low -- °F
--% Chance of Precip.
Yesterday
High -- | Low -- °F
Precip. -- in
Pressure 30.43 in
Visibility 10.0 miles
Clouds Mostly Cloudy 4900 ft
Mostly Cloudy 7000 ft
Overcast 9500 ft
Windchill 7 °F
Dew Point 4 °F
Humidity 61%
Rainfall in
Snow Depth Not available.
7:39 AM 6:20 PM
Waxing Crescent, 41% visible
METAR KIND 141254Z 13012KT 10SM BKN049 BKN070 OVC095 M10/M14 A3038 RMK AO2 SNE46 SLP303 P0000 T11001144
Pressure 30.43 in
Visibility 10.0 miles
Clouds Mostly Cloudy 4900 ft
Mostly Cloudy 7000 ft
Overcast 9500 ft
Windchill 7 °F
Dew Point 4 °F
Humidity 61%
Rainfall in
Snow Depth Not available.
7:39 AM 6:20 PM
Waxing Crescent, 41% visible
METAR KIND 141254Z 13012KT 10SM BKN049 BKN070 OVC095 M10/M14 A3038 RMK AO2 SNE46 SLP303 P0000 T11001144

10-Day Weather Forecast

Almanac

Astronomy

Feb. 14, 2016 Rise Set
Actual Time
Civil Twilight
Nautical Twilight
Astronomical Twilight
Moon
Length of Visible Light
Length of Day
Tomorrow will be .
, % of the Moon is Illuminated

Today's Extremes

State Highs State Lows

Community

WunderPhotos

Upload Photos

1,892,790 photos uploaded!

WunderBlog® & News

Nearby

Air Quality

  Air Quality AQ Index Pollutant
Not available.

Snow Depth

Station Depth Elevation

Earthquake Activity

City Distance Mag. Time & Date
Minimum magnitude displayed is 2.5.

Coastal Water Temperatures

Place Temperature

Stations

Nearby Weather Stations

Station Location Temp. Windchill Dew Point Humidity Wind Precip. Elev Updated Type
                   

Watches & Warnings

Winter Weather Advisory
Issued: 3:30 AM EST Feb. 14, 2016 – National Weather Service

... Winter Weather Advisory remains in effect from 8 am this
morning to midnight EST tonight...

* timing... snow developing by mid morning Sunday and continuing
the rest of the day and gradually diminishing Sunday night.

* Main impact... snow covered roads and poor travel conditions.
Snow accumulations of up to three inches are possible.

Precautionary/preparedness actions...

A Winter Weather Advisory for snow means that periods of snow
will cause primarily travel difficulties. Be prepared for snow
covered roads and limited visibilities... and use caution while
driving.